Time;durP1;ratioP1;P1;durP2;ratioP2;P2;SDS_P1;SDS_P2;PMS_P1;PMS_P2;Temp;Humidity;BMP_temperature;BMP_pressure;BME280_temperature;BME280_humidity;BME280_pressure;Samples;Min_cycle;Max_cycle;Signal;HPM_P1;HPM_P2
2022/01/28 00:03:31;;;;;;;28.35;17.10;;;;;;;;;;10193065;28;20042;-63
2022/01/28 00:08:30;;;;;;;15.45;10.40;;;;;;;;;;10196475;28;20077;-63
2022/01/28 00:13:34;;;;;;;22.95;15.32;;;;;;;;;;10195942;28;20065;-63
2022/01/28 00:39:34;;;;;;;80.28;35.40;;;;;;;;;;10192727;28;20073;-63
2022/01/28 00:44:32;;;;;;;53.42;25.45;;;;;;;;;;10193859;28;20478;-63
2022/01/28 00:49:32;;;;;;;56.78;26.83;;;;;;;;;;10195709;28;20081;-63
2022/01/28 00:54:30;;;;;;;61.45;30.27;;;;;;;;;;10194636;28;20474;-62
2022/01/28 00:59:29;;;;;;;61.90;27.90;;;;;;;;;;10193255;28;20077;-63
2022/01/28 01:04:27;;;;;;;47.75;24.35;;;;;;;;;;10187921;28;20069;-62
2022/01/28 01:09:26;;;;;;;63.75;28.00;;;;;;;;;;10186983;28;20081;-63
2022/01/28 01:14:25;;;;;;;58.45;28.33;;;;;;;;;;10187673;28;20062;-63
2022/01/28 01:19:26;;;;;;;59.30;27.13;;;;;;;;;;10194961;28;20362;-63
2022/01/28 01:24:26;;;;;;;73.78;37.17;;;;;;;;;;10196899;28;20053;-63
2022/01/28 01:29:27;;;;;;;48.92;27.50;;;;;;;;;;10190825;28;20553;-63
2022/01/28 01:34:25;;;;;;;20.08;13.18;;;;;;;;;;10191760;28;20563;-63
2022/01/28 01:39:26;;;;;;;69.97;29.80;;;;;;;;;;10191819;28;20080;-62
2022/01/28 01:44:34;;;;;;;29.45;18.77;;;;;;;;;;10186997;28;20280;-62
2022/01/28 01:54:50;;;;;;;34.90;20.00;;;;;;;;;;10194968;28;20074;-63
2022/01/28 01:59:49;;;;;;;24.00;16.40;;;;;;;;;;10195027;28;20475;-63
2022/01/28 02:04:49;;;;;;;20.02;13.05;;;;;;;;;;10191038;28;20468;-63
2022/01/28 02:09:47;;;;;;;21.23;15.15;;;;;;;;;;10194614;28;20092;-62
2022/01/28 02:14:46;;;;;;;21.52;12.93;;;;;;;;;;10195705;28;20077;-63
2022/01/28 02:19:44;;;;;;;19.40;11.77;;;;;;;;;;10191731;28;20076;-63
2022/01/28 02:24:45;;;;;;;16.13;10.43;;;;;;;;;;10190727;28;20705;-64
2022/01/28 02:29:45;;;;;;;11.43;9.32;;;;;;;;;;10191361;28;20108;-63
2022/01/28 02:34:43;;;;;;;12.43;8.18;;;;;;;;;;10191282;28;20503;-64
2022/01/28 02:39:42;;;;;;;8.88;7.15;;;;;;;;;;10189849;28;20076;-64
2022/01/28 02:44:47;;;;;;;10.13;8.43;;;;;;;;;;10195032;28;20046;-63
2022/01/28 02:49:45;;;;;;;;;;;;;;;;;;10195140;28;20077;-63
2022/01/28 02:54:47;;;;;;;13.57;10.52;;;;;;;;;;10189654;28;19953;-62
2022/01/28 02:59:46;;;;;;;11.45;8.95;;;;;;;;;;10190860;28;20453;-63
2022/01/28 03:05:07;;;;;;;9.75;8.30;;;;;;;;;;10190823;28;20066;-63
2022/01/28 03:15:28;;;;;;;14.27;7.95;;;;;;;;;;10173527;28;20057;-63
2022/01/28 03:20:37;;;;;;;7.88;5.80;;;;;;;;;;10193360;28;20053;-63
2022/01/28 03:25:37;;;;;;;10.93;6.63;;;;;;;;;;10191352;28;20459;-63
2022/01/28 03:30:37;;;;;;;7.00;5.15;;;;;;;;;;10190822;28;20092;-64
2022/01/28 03:35:36;;;;;;;6.88;5.20;;;;;;;;;;10186892;28;20083;-63
2022/01/28 03:40:36;;;;;;;8.02;5.85;;;;;;;;;;10195588;28;20077;-63
2022/01/28 03:45:35;;;;;;;6.30;5.32;;;;;;;;;;10200755;28;20081;-62
2022/01/28 03:50:34;;;;;;;8.65;6.97;;;;;;;;;;10199830;28;20084;-64
2022/01/28 03:55:33;;;;;;;10.55;7.80;;;;;;;;;;10198899;28;20081;-63
2022/01/28 04:00:32;;;;;;;8.82;7.10;;;;;;;;;;10194832;28;20046;-62
2022/01/28 04:16:27;;;;;;;9.52;6.80;;;;;;;;;;10198369;28;20058;-63
2022/01/28 04:21:25;;;;;;;7.50;6.03;;;;;;;;;;10198797;28;20065;-63
2022/01/28 04:26:24;;;;;;;8.50;5.15;;;;;;;;;;10198679;28;20045;-63
2022/01/28 04:31:23;;;;;;;7.95;5.90;;;;;;;;;;10198536;28;20080;-63
2022/01/28 04:36:23;;;;;;;6.63;5.32;;;;;;;;;;10196822;28;20089;-63
2022/01/28 04:41:28;;;;;;;8.52;6.60;;;;;;;;;;10193918;28;20419;-63
2022/01/28 04:46:35;;;;;;;18.90;6.80;;;;;;;;;;10187333;28;20499;-63
2022/01/28 04:51:51;;;;;;;39.17;27.80;;;;;;;;;;10189357;28;20820;-63
2022/01/28 04:56:57;;;;;;;12.23;9.20;;;;;;;;;;10190742;28;20065;-63
2022/01/28 05:12:59;;;;;;;8.60;6.45;;;;;;;;;;10188162;28;20088;-62
2022/01/28 05:23:53;;;;;;;8.07;6.13;;;;;;;;;;10187075;28;20069;-62
2022/01/28 05:28:48;;;;;;;14.10;6.80;;;;;;;;;;10189049;28;20084;-61
2022/01/28 05:33:48;;;;;;;7.75;5.75;;;;;;;;;;10186272;28;20081;-63
2022/01/28 05:38:46;;;;;;;7.40;5.78;;;;;;;;;;10185139;28;20069;-63
2022/01/28 05:43:44;;;;;;;12.18;7.03;;;;;;;;;;10186555;28;20077;-63
2022/01/28 05:48:43;;;;;;;12.95;8.25;;;;;;;;;;10186506;28;20534;-63
2022/01/28 05:53:42;;;;;;;11.82;7.85;;;;;;;;;;10180520;28;20114;-63
2022/01/28 05:58:41;;;;;;;11.27;8.23;;;;;;;;;;10185247;28;20077;-63
2022/01/28 06:03:39;;;;;;;14.13;10.07;;;;;;;;;;10186551;28;20089;-60
2022/01/28 06:08:37;;;;;;;10.18;8.02;;;;;;;;;;10184822;28;20065;-63
2022/01/28 06:13:37;;;;;;;10.88;7.07;;;;;;;;;;10185287;28;20424;-63
2022/01/28 06:18:35;;;;;;;8.25;6.85;;;;;;;;;;10189929;28;20049;-64
2022/01/28 06:23:34;;;;;;;12.27;10.35;;;;;;;;;;10189092;28;20080;-64
2022/01/28 06:28:32;;;;;;;10.13;7.30;;;;;;;;;;10189615;28;20065;-63
2022/01/28 06:33:32;;;;;;;13.48;9.27;;;;;;;;;;10190044;28;20078;-64
2022/01/28 06:38:30;;;;;;;12.60;8.77;;;;;;;;;;10193591;28;20088;-63
2022/01/28 06:43:29;;;;;;;21.58;11.88;;;;;;;;;;10181970;28;20085;-62
2022/01/28 06:48:27;;;;;;;13.55;8.38;;;;;;;;;;10186686;28;20085;-63
2022/01/28 06:53:26;;;;;;;11.90;8.13;;;;;;;;;;10186951;28;20085;-63
2022/01/28 06:58:25;;;;;;;10.13;8.13;;;;;;;;;;10188695;28;20181;-63
2022/01/28 07:03:23;;;;;;;15.82;10.07;;;;;;;;;;10188532;28;20065;-63
2022/01/28 07:08:23;;;;;;;12.07;7.97;;;;;;;;;;10184684;28;20078;-62
2022/01/28 07:13:22;;;;;;;9.52;6.80;;;;;;;;;;10206734;28;20069;-63
2022/01/28 07:18:21;;;;;;;10.65;8.48;;;;;;;;;;10206234;28;20096;-62
2022/01/28 07:23:19;;;;;;;11.10;8.77;;;;;;;;;;10206291;28;20133;-64
2022/01/28 07:28:17;;;;;;;17.70;10.23;;;;;;;;;;10205877;28;20645;-62
2022/01/28 07:33:17;;;;;;;12.50;9.25;;;;;;;;;;10198929;28;20183;-63
2022/01/28 07:38:15;;;;;;;16.40;9.57;;;;;;;;;;10204833;28;20080;-63
2022/01/28 07:43:13;;;;;;;21.65;10.35;;;;;;;;;;10196557;28;20084;-63
2022/01/28 07:48:11;;;;;;;15.00;8.65;;;;;;;;;;10211058;28;20506;-62
2022/01/28 07:53:15;;;;;;;25.50;12.90;;;;;;;;;;10220271;28;20069;-62
2022/01/28 07:58:14;;;;;;;17.08;11.90;;;;;;;;;;10217545;28;20066;-63
2022/01/28 08:03:12;;;;;;;17.08;13.32;;;;;;;;;;10220498;28;20085;-63
2022/01/28 08:08:13;;;;;;;21.27;14.27;;;;;;;;;;10219539;28;20614;-63
2022/01/28 08:13:12;;;;;;;17.95;14.55;;;;;;;;;;10217920;28;20082;-63
2022/01/28 08:18:10;;;;;;;28.67;18.63;;;;;;;;;;10211440;28;20069;-63
2022/01/28 08:23:09;;;;;;;33.13;20.90;;;;;;;;;;10200549;28;20058;-63
2022/01/28 08:28:09;;;;;;;30.15;19.33;;;;;;;;;;10204757;28;20094;-62
2022/01/28 08:33:08;;;;;;;21.73;13.98;;;;;;;;;;10196022;28;20505;-63
2022/01/28 08:38:13;;;;;;;19.95;13.30;;;;;;;;;;10196640;28;20088;-62
2022/01/28 08:43:13;;;;;;;19.65;12.40;;;;;;;;;;10203561;28;20077;-63
2022/01/28 08:48:11;;;;;;;20.42;14.77;;;;;;;;;;10200044;28;20034;-63
2022/01/28 08:53:10;;;;;;;84.28;54.53;;;;;;;;;;10193974;28;20095;-63
2022/01/28 08:58:09;;;;;;;31.83;21.55;;;;;;;;;;10193721;28;20076;-63
2022/01/28 09:03:09;;;;;;;30.70;17.58;;;;;;;;;;10201952;28;20442;-64
2022/01/28 09:08:09;;;;;;;18.38;12.63;;;;;;;;;;10217764;28;20037;-64
2022/01/28 09:13:25;;;;;;;18.23;12.70;;;;;;;;;;10210839;28;20381;-64
2022/01/28 09:18:25;;;;;;;18.00;13.52;;;;;;;;;;10207927;28;20081;-64
2022/01/28 09:23:23;;;;;;;16.65;11.40;;;;;;;;;;10204524;28;20073;-64
2022/01/28 09:28:22;;;;;;;40.95;24.95;;;;;;;;;;10205304;28;20076;-64
2022/01/28 09:33:20;;;;;;;36.67;26.98;;;;;;;;;;10195669;28;20080;-65
2022/01/28 09:38:20;;;;;;;15.40;12.20;;;;;;;;;;10186006;28;20088;-65
2022/01/28 09:43:18;;;;;;;20.80;12.80;;;;;;;;;;10189314;28;20081;-65
2022/01/28 09:48:18;;;;;;;18.45;12.20;;;;;;;;;;10186708;28;20057;-65
2022/01/28 09:53:17;;;;;;;16.60;10.70;;;;;;;;;;10184553;28;20081;-65
2022/01/28 09:58:17;;;;;;;13.70;8.63;;;;;;;;;;10184843;28;20127;-64
2022/01/28 10:03:16;;;;;;;16.73;9.88;;;;;;;;;;10186119;28;20112;-64
2022/01/28 10:08:16;;;;;;;20.52;14.52;;;;;;;;;;10191926;28;20487;-64
2022/01/28 10:13:18;;;;;;;16.42;10.48;;;;;;;;;;10191305;28;20468;-64
2022/01/28 10:18:17;;;;;;;14.82;10.80;;;;;;;;;;10189826;28;20049;-64
2022/01/28 10:23:16;;;;;;;17.88;12.40;;;;;;;;;;10191443;28;20073;-65
2022/01/28 10:28:14;;;;;;;19.73;12.88;;;;;;;;;;10191225;28;20066;-63
2022/01/28 10:33:14;;;;;;;13.05;9.32;;;;;;;;;;10191275;28;20088;-63
2022/01/28 10:38:27;;;;;;;11.20;9.48;;;;;;;;;;10189695;28;20084;-63
2022/01/28 10:43:25;;;;;;;26.88;15.77;;;;;;;;;;10191036;28;20092;-64
2022/01/28 10:48:24;;;;;;;17.73;11.02;;;;;;;;;;10190779;28;20077;-64
2022/01/28 10:53:26;;;;;;;34.15;21.10;;;;;;;;;;10190813;28;20097;-64
2022/01/28 10:58:26;;;;;;;15.57;11.40;;;;;;;;;;10189909;28;20066;-64
2022/01/28 11:03:26;;;;;;;18.75;10.00;;;;;;;;;;10190193;28;20057;-64
2022/01/28 11:08:27;;;;;;;19.25;11.50;;;;;;;;;;10190760;28;20068;-64
2022/01/28 11:13:25;;;;;;;16.48;12.85;;;;;;;;;;10190480;28;20113;-65
2022/01/28 11:18:24;;;;;;;14.48;9.35;;;;;;;;;;10193280;28;20073;-64
2022/01/28 11:23:27;;;;;;;14.98;11.98;;;;;;;;;;10194418;28;20085;-64
2022/01/28 11:28:39;;;;;;;16.15;10.43;;;;;;;;;;10190162;28;20066;-64
2022/01/28 11:33:45;;;;;;;10.20;7.78;;;;;;;;;;10183012;28;20074;-64
2022/01/28 11:38:44;;;;;;;18.67;9.00;;;;;;;;;;10193384;28;20060;-65
2022/01/28 11:43:50;;;;;;;11.55;7.53;;;;;;;;;;10193713;28;20053;-64
2022/01/28 11:49:09;;;;;;;16.48;10.45;;;;;;;;;;10188986;28;20077;-64
2022/01/28 11:54:08;;;;;;;13.13;9.38;;;;;;;;;;10184737;28;20492;-64
2022/01/28 11:59:09;;;;;;;19.58;14.85;;;;;;;;;;10192893;28;20062;-64
2022/01/28 12:04:25;;;;;;;23.30;15.90;;;;;;;;;;10195621;28;20497;-64
2022/01/28 12:09:24;;;;;;;33.10;20.08;;;;;;;;;;10196096;28;20077;-64
2022/01/28 12:14:37;;;;;;;16.00;11.13;;;;;;;;;;10196179;28;20526;-64
2022/01/28 12:19:37;;;;;;;12.35;9.45;;;;;;;;;;10195126;28;20092;-64
2022/01/28 12:24:37;;;;;;;11.10;8.20;;;;;;;;;;10198791;28;20104;-63
2022/01/28 12:29:37;;;;;;;11.32;8.77;;;;;;;;;;10200044;28;20053;-63
2022/01/28 12:34:42;;;;;;;9.07;7.25;;;;;;;;;;10199492;28;20485;-64
2022/01/28 12:39:49;;;;;;;11.47;9.37;;;;;;;;;;10192900;28;20050;-64
2022/01/28 12:44:51;;;;;;;21.60;10.30;;;;;;;;;;10193865;28;20065;-64
2022/01/28 12:49:55;;;;;;;15.07;9.50;;;;;;;;;;10193930;28;20117;-64
2022/01/28 12:54:53;;;;;;;16.08;10.75;;;;;;;;;;10193134;28;20104;-64
2022/01/28 12:59:52;;;;;;;25.15;14.35;;;;;;;;;;10193481;28;20076;-64
2022/01/28 13:05:10;;;;;;;23.90;11.43;;;;;;;;;;10193294;28;20046;-64
2022/01/28 13:10:10;;;;;;;16.38;9.90;;;;;;;;;;10192832;28;20070;-64
2022/01/28 13:15:10;;;;;;;16.17;10.75;;;;;;;;;;10192663;28;20084;-64
2022/01/28 13:20:10;;;;;;;17.92;12.10;;;;;;;;;;10196261;28;20066;-64
2022/01/28 13:25:21;;;;;;;15.68;10.85;;;;;;;;;;10192541;28;20182;-64
2022/01/28 13:30:20;;;;;;;15.90;10.07;;;;;;;;;;10192892;28;20089;-64
2022/01/28 13:35:19;;;;;;;17.38;11.75;;;;;;;;;;10191155;28;20471;-64
2022/01/28 13:40:33;;;;;;;25.73;12.88;;;;;;;;;;10192179;28;20050;-64
2022/01/28 13:45:34;;;;;;;15.52;12.98;;;;;;;;;;10191285;28;20042;-64
2022/01/28 13:50:34;;;;;;;19.73;11.98;;;;;;;;;;10191914;28;20096;-64
2022/01/28 13:55:34;;;;;;;19.45;14.55;;;;;;;;;;10191607;28;20081;-64
2022/01/28 14:00:36;;;;;;;22.67;17.70;;;;;;;;;;10188788;28;20106;-65
2022/01/28 14:05:50;;;;;;;25.27;10.85;;;;;;;;;;10208147;28;20169;-64
2022/01/28 14:11:25;;;;;;;29.10;11.50;;;;;;;;;;10185459;28;20538;-63
2022/01/28 14:16:26;;;;;;;23.90;11.07;;;;;;;;;;10192530;28;20088;-64
2022/01/28 14:21:24;;;;;;;32.45;15.32;;;;;;;;;;10189215;28;20081;-63
2022/01/28 14:26:24;;;;;;;22.83;13.68;;;;;;;;;;10194365;28;20112;-63
2022/01/28 14:31:23;;;;;;;25.05;15.88;;;;;;;;;;10188429;28;20092;-63
2022/01/28 14:36:22;;;;;;;28.23;15.35;;;;;;;;;;10187676;28;20084;-63
2022/01/28 14:41:39;;;;;;;32.53;15.70;;;;;;;;;;10184701;28;20318;-62
2022/01/28 14:46:38;;;;;;;28.13;16.10;;;;;;;;;;10185905;28;20077;-62
2022/01/28 14:51:38;;;;;;;19.95;12.43;;;;;;;;;;10186489;28;20077;-63
2022/01/28 14:56:36;;;;;;;28.52;14.68;;;;;;;;;;10189815;28;20077;-63
2022/01/28 15:01:36;;;;;;;25.63;16.05;;;;;;;;;;10192975;28;20077;-64
2022/01/28 15:06:34;;;;;;;45.38;25.92;;;;;;;;;;10193365;28;20084;-64
2022/01/28 15:11:43;;;;;;;27.38;17.83;;;;;;;;;;10189401;28;20693;-64
2022/01/28 15:16:43;;;;;;;45.08;26.77;;;;;;;;;;10189516;28;20475;-64
2022/01/28 15:21:44;;;;;;;24.23;13.02;;;;;;;;;;10189037;28;20108;-64
2022/01/28 15:26:42;;;;;;;25.02;15.63;;;;;;;;;;10188284;28;20077;-63
2022/01/28 15:36:58;;;;;;;60.25;34.28;;;;;;;;;;10192835;28;20086;-64
2022/01/28 15:41:56;;;;;;;60.40;34.17;;;;;;;;;;10196265;28;20061;-64
2022/01/28 15:46:55;;;;;;;36.20;22.92;;;;;;;;;;10196350;28;20046;-64
2022/01/28 15:51:53;;;;;;;25.10;15.40;;;;;;;;;;10195620;28;20062;-63
2022/01/28 15:56:53;;;;;;;28.15;17.65;;;;;;;;;;10195952;28;20061;-64
2022/01/28 16:01:51;;;;;;;27.08;18.50;;;;;;;;;;10195769;28;20113;-64
2022/01/28 16:06:51;;;;;;;26.40;17.85;;;;;;;;;;10195388;28;20070;-65
2022/01/28 16:11:51;;;;;;;19.25;14.30;;;;;;;;;;10195550;28;20070;-63
2022/01/28 16:17:25;;;;;;;26.25;15.80;;;;;;;;;;10195527;28;20085;-63
2022/01/28 16:22:25;;;;;;;21.27;15.38;;;;;;;;;;10192031;28;20061;-65
2022/01/28 16:27:23;;;;;;;47.90;31.92;;;;;;;;;;10194992;28;20068;-63
2022/01/28 16:32:23;;;;;;;47.72;30.50;;;;;;;;;;10194778;28;20073;-63
2022/01/28 16:37:21;;;;;;;59.03;27.52;;;;;;;;;;10194276;28;20080;-63
2022/01/28 16:42:26;;;;;;;24.88;17.70;;;;;;;;;;10193985;28;20077;-63
2022/01/28 16:47:26;;;;;;;26.13;16.87;;;;;;;;;;10193154;28;20050;-64
2022/01/28 16:52:24;;;;;;;24.90;16.27;;;;;;;;;;10193253;28;20053;-64
2022/01/28 16:57:22;;;;;;;21.88;15.95;;;;;;;;;;10193009;28;20085;-64
2022/01/28 17:02:21;;;;;;;18.08;13.60;;;;;;;;;;10194015;28;20088;-63
2022/01/28 17:07:22;;;;;;;22.92;16.33;;;;;;;;;;10192331;28;20077;-63
2022/01/28 17:12:35;;;;;;;23.60;14.75;;;;;;;;;;10196840;28;20427;-64
2022/01/28 17:17:34;;;;;;;23.42;15.35;;;;;;;;;;10195395;28;20073;-62
2022/01/28 17:22:34;;;;;;;31.73;20.67;;;;;;;;;;10193510;28;20076;-62
2022/01/28 17:27:32;;;;;;;36.55;20.73;;;;;;;;;;10192008;28;20066;-61
2022/01/28 17:32:31;;;;;;;36.10;20.05;;;;;;;;;;10192755;28;20073;-61
2022/01/28 17:37:29;;;;;;;23.25;16.75;;;;;;;;;;10188441;28;20078;-62
2022/01/28 17:42:28;;;;;;;26.30;16.05;;;;;;;;;;10187779;28;20073;-62
2022/01/28 17:47:47;;;;;;;19.25;14.57;;;;;;;;;;10189112;28;20451;-62
2022/01/28 17:52:45;;;;;;;23.33;16.73;;;;;;;;;;10189083;28;20100;-63
2022/01/28 17:57:45;;;;;;;23.98;16.85;;;;;;;;;;10194738;28;20069;-64
2022/01/28 18:02:43;;;;;;;25.52;18.30;;;;;;;;;;10191019;28;20726;-63
2022/01/28 18:07:42;;;;;;;20.80;15.57;;;;;;;;;;10190767;28;20135;-62
2022/01/28 18:12:48;;;;;;;20.80;15.95;;;;;;;;;;10216645;28;20261;-63
2022/01/28 18:17:48;;;;;;;25.75;15.70;;;;;;;;;;10198796;28;20072;-63
2022/01/28 18:22:46;;;;;;;19.42;13.32;;;;;;;;;;10212760;28;20061;-63
2022/01/28 18:27:44;;;;;;;16.80;12.88;;;;;;;;;;10195635;28;20065;-63
2022/01/28 18:32:44;;;;;;;18.60;13.35;;;;;;;;;;10188176;28;20432;-62
2022/01/28 18:37:42;;;;;;;16.85;11.80;;;;;;;;;;10198065;28;20080;-62
2022/01/28 18:42:46;;;;;;;22.85;12.88;;;;;;;;;;10202838;28;20074;-63
2022/01/28 18:47:46;;;;;;;23.10;14.25;;;;;;;;;;10176390;28;20062;-63
2022/01/28 18:52:44;;;;;;;31.42;19.58;;;;;;;;;;10179681;28;20452;-63
2022/01/28 18:57:42;;;;;;;31.15;19.42;;;;;;;;;;10174616;28;20456;-63
2022/01/28 19:02:40;;;;;;;27.52;18.80;;;;;;;;;;10172235;28;20066;-62
2022/01/28 19:07:41;;;;;;;20.45;15.13;;;;;;;;;;10171422;28;20066;-63
2022/01/28 19:12:40;;;;;;;25.80;18.50;;;;;;;;;;10175958;28;20530;-64
2022/01/28 19:17:39;;;;;;;23.95;15.70;;;;;;;;;;10176403;28;20081;-63
2022/01/28 19:22:37;;;;;;;35.83;21.05;;;;;;;;;;10180475;28;20057;-63
2022/01/28 19:27:37;;;;;;;30.05;17.48;;;;;;;;;;10180184;28;20077;-62
2022/01/28 19:32:35;;;;;;;28.98;19.17;;;;;;;;;;10178819;28;20490;-63
2022/01/28 19:37:34;;;;;;;18.45;14.02;;;;;;;;;;10185896;28;20074;-62
2022/01/28 19:42:32;;;;;;;33.90;19.45;;;;;;;;;;10185729;28;20089;-62
2022/01/28 19:47:31;;;;;;;25.25;16.90;;;;;;;;;;10185368;28;20073;-62
2022/01/28 19:52:30;;;;;;;32.92;19.25;;;;;;;;;;10185638;28;20088;-61
2022/01/28 19:57:28;;;;;;;22.90;16.20;;;;;;;;;;10185789;28;20073;-64
2022/01/28 20:02:27;;;;;;;21.63;16.15;;;;;;;;;;10182446;28;20126;-62
2022/01/28 20:07:26;;;;;;;26.88;17.48;;;;;;;;;;10171753;28;20076;-62
2022/01/28 20:12:25;;;;;;;25.38;18.90;;;;;;;;;;10176219;28;20088;-63
2022/01/28 20:17:23;;;;;;;25.30;17.77;;;;;;;;;;10169673;28;20594;-60
2022/01/28 20:22:22;;;;;;;30.85;20.58;;;;;;;;;;10179676;28;20065;-60
2022/01/28 20:27:21;;;;;;;23.83;16.55;;;;;;;;;;10177270;28;20078;-62
2022/01/28 20:32:20;;;;;;;32.35;23.02;;;;;;;;;;10174184;28;20077;-61
2022/01/28 20:37:18;;;;;;;30.35;21.05;;;;;;;;;;10167999;28;20090;-61
2022/01/28 20:42:16;;;;;;;23.35;16.30;;;;;;;;;;10166602;28;20307;-61
2022/01/28 20:47:16;;;;;;;20.92;14.63;;;;;;;;;;10167811;28;20502;-60
2022/01/28 20:52:14;;;;;;;25.77;15.90;;;;;;;;;;10176165;28;20459;-61
2022/01/28 20:57:13;;;;;;;26.02;16.52;;;;;;;;;;10180380;28;20084;-62
2022/01/28 21:02:11;;;;;;;35.30;20.08;;;;;;;;;;10170319;28;20541;-62
2022/01/28 21:07:13;;;;;;;31.52;15.57;;;;;;;;;;10185579;28;20109;-62
2022/01/28 21:12:11;;;;;;;23.65;14.55;;;;;;;;;;10168254;28;20467;-60
2022/01/28 21:17:10;;;;;;;35.83;20.23;;;;;;;;;;10178587;28;20630;-61
2022/01/28 21:22:08;;;;;;;16.08;11.10;;;;;;;;;;10180871;28;20072;-61
2022/01/28 21:27:08;;;;;;;17.30;11.90;;;;;;;;;;10173122;28;20066;-60
2022/01/28 21:32:06;;;;;;;18.45;12.20;;;;;;;;;;10181866;28;20069;-59
2022/01/28 21:37:05;;;;;;;15.13;11.32;;;;;;;;;;10169159;28;20093;-60
2022/01/28 21:42:03;;;;;;;17.45;12.55;;;;;;;;;;10168138;28;20069;-61
2022/01/28 21:47:03;;;;;;;18.13;11.88;;;;;;;;;;10163382;28;20139;-60
2022/01/28 21:52:02;;;;;;;18.40;12.07;;;;;;;;;;10160817;28;20062;-59
2022/01/28 21:57:02;;;;;;;13.43;9.85;;;;;;;;;;10164003;28;20066;-60
2022/01/28 22:02:01;;;;;;;17.15;12.13;;;;;;;;;;10168165;28;20089;-60
2022/01/28 22:07:01;;;;;;;18.08;11.85;;;;;;;;;;10166537;28;20467;-61
2022/01/28 22:11:59;;;;;;;19.50;12.82;;;;;;;;;;10176418;28;20263;-61
2022/01/28 22:16:57;;;;;;;23.30;13.63;;;;;;;;;;10177125;28;20080;-60
2022/01/28 22:21:56;;;;;;;14.25;9.43;;;;;;;;;;10173085;28;20164;-61
2022/01/28 22:26:55;;;;;;;16.95;10.50;;;;;;;;;;10165684;28;20089;-60
2022/01/28 22:31:53;;;;;;;15.50;10.30;;;;;;;;;;10178310;28;20069;-60
2022/01/28 22:36:52;;;;;;;19.60;10.52;;;;;;;;;;10172781;28;20078;-61
2022/01/28 22:41:51;;;;;;;14.52;9.85;;;;;;;;;;10186043;28;20069;-60
2022/01/28 22:46:51;;;;;;;15.32;9.75;;;;;;;;;;10174755;28;20554;-61
2022/01/28 22:51:49;;;;;;;15.75;9.93;;;;;;;;;;10163844;28;20095;-59
2022/01/28 22:56:48;;;;;;;16.50;10.50;;;;;;;;;;10179188;28;20077;-60
2022/01/28 23:01:49;;;;;;;14.27;10.73;;;;;;;;;;10186182;28;20065;-62
2022/01/28 23:06:50;;;;;;;18.02;11.88;;;;;;;;;;10185976;28;20073;-60
2022/01/28 23:11:48;;;;;;;19.40;11.38;;;;;;;;;;10167104;28;20076;-61
2022/01/28 23:16:47;;;;;;;11.18;8.45;;;;;;;;;;10181959;28;20799;-60
2022/01/28 23:21:45;;;;;;;14.52;8.98;;;;;;;;;;10202694;28;20076;-61
2022/01/28 23:26:46;;;;;;;17.35;11.15;;;;;;;;;;10183786;28;20495;-61
2022/01/28 23:31:49;;;;;;;13.23;8.82;;;;;;;;;;10184910;28;20066;-60
2022/01/28 23:36:47;;;;;;;14.75;10.30;;;;;;;;;;10185240;28;20104;-60
2022/01/28 23:41:47;;;;;;;12.60;8.82;;;;;;;;;;10187045;28;20065;-60
2022/01/28 23:46:45;;;;;;;14.50;10.10;;;;;;;;;;10198662;28;20065;-60
2022/01/28 23:51:43;;;;;;;14.00;8.73;;;;;;;;;;10214870;28;20065;-60
2022/01/28 23:56:42;;;;;;;9.57;7.53;;;;;;;;;;10215537;28;20050;-61
